Time;durP1;ratioP1;P1;durP2;ratioP2;P2;SDS_P1;SDS_P2;PMS_P1;PMS_P2;Temp;Humidity;BMP_temperature;BMP_pressure;BME280_temperature;BME280_humidity;BME280_pressure;Samples;Min_cycle;Max_cycle;Signal;HPM_P1;HPM_P2
2021/12/06 00:01:52;;;;;;;135.60;56.50;;;;;;;;;;5098983;28;20277;-67
2021/12/06 00:04:29;;;;;;;122.38;52.22;;;;;;;;;;5098795;28;20024;-67
2021/12/06 00:06:59;;;;;;;113.38;49.85;;;;;;;;;;5098556;28;20024;-67
2021/12/06 00:09:27;;;;;;;119.63;48.33;;;;;;;;;;5098522;28;20409;-67
2021/12/06 00:12:01;;;;;;;121.28;49.35;;;;;;;;;;5075999;28;20063;-67
2021/12/06 00:14:31;;;;;;;129.98;57.95;;;;;;;;;;5076235;28;20035;-67
2021/12/06 00:17:00;;;;;;;133.20;52.15;;;;;;;;;;5059514;28;20040;-67
2021/12/06 00:19:28;;;;;;;121.85;53.22;;;;;;;;;;5076274;28;20044;-67
2021/12/06 00:21:56;;;;;;;120.00;49.78;;;;;;;;;;5076275;28;20115;-67
2021/12/06 00:24:23;;;;;;;114.03;45.03;;;;;;;;;;5076195;28;20028;-67
2021/12/06 00:26:51;;;;;;;133.80;52.53;;;;;;;;;;5076001;28;20028;-67
2021/12/06 00:29:19;;;;;;;158.52;64.35;;;;;;;;;;5058974;28;20020;-67
2021/12/06 00:31:47;;;;;;;150.90;61.05;;;;;;;;;;5059058;28;20103;-67
2021/12/06 00:34:17;;;;;;;146.32;57.65;;;;;;;;;;5075972;28;20116;-67
2021/12/06 00:36:53;;;;;;;150.85;60.13;;;;;;;;;;5075937;28;20369;-67
2021/12/06 00:39:22;;;;;;;134.63;54.08;;;;;;;;;;5075759;28;20076;-67
2021/12/06 00:41:50;;;;;;;145.05;56.53;;;;;;;;;;5075363;28;20098;-67
2021/12/06 00:44:18;;;;;;;135.55;55.47;;;;;;;;;;5075183;28;20393;-67
2021/12/06 00:46:45;;;;;;;142.50;59.88;;;;;;;;;;5058911;28;20439;-66
2021/12/06 00:49:13;;;;;;;145.50;61.17;;;;;;;;;;5058982;28;20029;-66
2021/12/06 00:51:40;;;;;;;123.40;53.00;;;;;;;;;;5075851;28;20031;-66
2021/12/06 00:54:09;;;;;;;134.05;55.78;;;;;;;;;;5075592;28;20426;-66
2021/12/06 00:56:36;;;;;;;124.53;53.20;;;;;;;;;;5075118;28;20071;-67
2021/12/06 00:59:03;;;;;;;122.53;51.08;;;;;;;;;;5076192;28;20424;-67
2021/12/06 01:01:31;;;;;;;132.52;55.45;;;;;;;;;;5075979;28;20106;-67
2021/12/06 01:03:59;;;;;;;129.98;52.10;;;;;;;;;;5076038;28;20425;-68
2021/12/06 01:06:27;;;;;;;134.20;53.10;;;;;;;;;;5076962;28;20118;-68
2021/12/06 01:08:54;;;;;;;138.63;55.50;;;;;;;;;;5075662;28;20063;-67
2021/12/06 01:11:22;;;;;;;130.40;56.47;;;;;;;;;;5075994;28;20108;-67
2021/12/06 01:13:49;;;;;;;143.60;62.17;;;;;;;;;;5075913;28;20028;-67
2021/12/06 01:16:17;;;;;;;161.07;71.90;;;;;;;;;;5075807;28;20044;-67
2021/12/06 01:18:45;;;;;;;167.30;73.13;;;;;;;;;;5075929;28;20349;-67
2021/12/06 01:21:20;;;;;;;153.27;74.22;;;;;;;;;;5076983;28;20024;-67
2021/12/06 01:24:05;;;;;;;162.45;72.55;;;;;;;;;;5076133;28;20344;-67
2021/12/06 01:40:21;;;;;;;186.00;84.95;;;;;;;;;;5053196;28;20044;-66
2021/12/06 01:42:49;;;;;;;183.98;84.40;;;;;;;;;;5054079;28;20036;-65
2021/12/06 01:45:16;;;;;;;159.90;69.15;;;;;;;;;;5054474;28;20048;-65
2021/12/06 01:47:46;;;;;;;164.02;68.57;;;;;;;;;;5054416;28;20044;-64
2021/12/06 01:50:23;;;;;;;145.93;66.38;;;;;;;;;;5054562;28;20024;-65
2021/12/06 01:52:53;;;;;;;156.02;68.57;;;;;;;;;;5054470;28;20438;-65
2021/12/06 01:55:24;;;;;;;148.57;61.60;;;;;;;;;;5054387;28;20108;-65
2021/12/06 01:57:53;;;;;;;157.98;68.15;;;;;;;;;;5054163;28;20056;-64
2021/12/06 02:00:22;;;;;;;217.13;87.38;;;;;;;;;;5054036;28;20040;-66
2021/12/06 02:02:50;;;;;;;223.95;91.03;;;;;;;;;;5054298;28;20033;-67
2021/12/06 02:05:18;;;;;;;189.77;75.30;;;;;;;;;;5054233;28;20025;-67
2021/12/06 02:07:45;;;;;;;161.68;60.50;;;;;;;;;;5073293;28;20433;-66
2021/12/06 02:10:13;;;;;;;103.10;40.08;;;;;;;;;;5076096;28;20449;-66
2021/12/06 02:12:40;;;;;;;87.28;33.85;;;;;;;;;;5075828;28;20024;-65
2021/12/06 02:15:25;;;;;;;77.10;31.80;;;;;;;;;;5076052;28;20020;-65
2021/12/06 02:18:08;;;;;;;94.75;34.88;;;;;;;;;;5075998;28;20028;-65
2021/12/06 02:20:45;;;;;;;85.07;34.75;;;;;;;;;;5075950;28;20076;-64
2021/12/06 02:23:13;;;;;;;115.95;46.08;;;;;;;;;;5075871;28;20040;-65
2021/12/06 02:25:40;;;;;;;105.53;43.72;;;;;;;;;;5075857;28;20048;-65
2021/12/06 02:28:08;;;;;;;86.40;37.20;;;;;;;;;;5074542;28;20028;-65
2021/12/06 02:30:36;;;;;;;82.85;33.72;;;;;;;;;;5074611;28;20020;-65
2021/12/06 02:33:04;;;;;;;93.72;39.38;;;;;;;;;;5074457;28;20021;-65
2021/12/06 02:35:32;;;;;;;76.90;33.97;;;;;;;;;;5068490;28;20025;-67
2021/12/06 02:38:02;;;;;;;76.53;34.40;;;;;;;;;;5066085;28;20028;-67
2021/12/06 02:40:32;;;;;;;83.07;34.65;;;;;;;;;;5055657;28;20032;-66
2021/12/06 02:43:00;;;;;;;96.38;43.00;;;;;;;;;;5071597;28;20035;-66
2021/12/06 02:45:29;;;;;;;92.18;38.08;;;;;;;;;;5075600;28;20032;-65
2021/12/06 02:47:58;;;;;;;85.68;35.45;;;;;;;;;;5075412;28;20056;-66
2021/12/06 02:50:27;;;;;;;89.78;39.70;;;;;;;;;;5075628;28;20028;-66
2021/12/06 02:52:55;;;;;;;95.15;37.90;;;;;;;;;;5074488;28;20086;-67
2021/12/06 02:57:58;;;;;;;96.30;39.53;;;;;;;;;;5069935;28;20052;-65
2021/12/06 03:00:26;;;;;;;85.50;37.90;;;;;;;;;;5075501;28;20047;-65
2021/12/06 03:03:08;;;;;;;98.28;38.67;;;;;;;;;;5074393;28;20028;-67
2021/12/06 03:05:36;;;;;;;92.57;38.75;;;;;;;;;;5074524;28;20033;-65
2021/12/06 03:08:13;;;;;;;104.10;41.15;;;;;;;;;;5075568;28;20066;-67
2021/12/06 03:10:44;;;;;;;111.68;42.25;;;;;;;;;;5074521;28;20029;-68
2021/12/06 03:13:16;;;;;;;105.80;42.33;;;;;;;;;;5074349;28;20048;-67
2021/12/06 03:15:44;;;;;;;115.05;46.72;;;;;;;;;;5074558;28;20055;-67
2021/12/06 03:18:11;;;;;;;130.10;52.63;;;;;;;;;;5074248;28;20362;-66
2021/12/06 03:20:39;;;;;;;133.70;50.65;;;;;;;;;;5075290;28;20099;-69
2021/12/06 03:23:06;;;;;;;125.45;50.15;;;;;;;;;;5075367;28;20059;-71
2021/12/06 03:25:34;;;;;;;127.60;48.38;;;;;;;;;;5074096;28;20032;-73
2021/12/06 03:28:03;;;;;;;132.15;50.70;;;;;;;;;;5075184;28;20028;-71
2021/12/06 03:30:33;;;;;;;119.78;48.70;;;;;;;;;;5081348;28;20016;-70
2021/12/06 03:33:01;;;;;;;126.90;47.95;;;;;;;;;;5095323;28;20100;-65
2021/12/06 03:35:28;;;;;;;106.97;45.08;;;;;;;;;;5088205;28;20415;-66
2021/12/06 03:37:55;;;;;;;116.93;43.90;;;;;;;;;;5082343;28;20032;-68
2021/12/06 03:40:23;;;;;;;121.85;46.45;;;;;;;;;;5074004;28;20055;-65
2021/12/06 03:42:51;;;;;;;116.07;46.80;;;;;;;;;;5093774;28;20075;-64
2021/12/06 03:45:18;;;;;;;108.18;44.80;;;;;;;;;;5095207;28;20056;-65
2021/12/06 03:47:46;;;;;;;122.63;50.22;;;;;;;;;;5097000;28;20054;-65
2021/12/06 03:50:14;;;;;;;115.13;49.35;;;;;;;;;;5099127;28;20116;-62
2021/12/06 03:52:41;;;;;;;132.80;53.88;;;;;;;;;;5098219;28;20024;-64
2021/12/06 03:55:09;;;;;;;136.43;54.83;;;;;;;;;;5078364;28;20051;-65
2021/12/06 03:57:36;;;;;;;128.10;48.33;;;;;;;;;;5078455;28;20098;-65
2021/12/06 04:00:04;;;;;;;144.95;54.65;;;;;;;;;;5078474;28;20070;-66
2021/12/06 04:02:32;;;;;;;135.50;52.20;;;;;;;;;;5078109;28;20029;-65
2021/12/06 04:05:02;;;;;;;149.82;57.65;;;;;;;;;;5078121;28;20364;-66
2021/12/06 04:07:30;;;;;;;179.10;68.32;;;;;;;;;;5078085;28;20481;-65
2021/12/06 04:09:58;;;;;;;173.38;72.72;;;;;;;;;;5077113;28;20366;-67
2021/12/06 04:12:26;;;;;;;224.70;89.38;;;;;;;;;;5086283;28;20028;-66
2021/12/06 04:14:53;;;;;;;227.18;107.38;;;;;;;;;;5095902;28;20602;-65
2021/12/06 04:17:21;;;;;;;256.42;120.85;;;;;;;;;;5097634;28;20048;-65
2021/12/06 04:19:49;;;;;;;269.73;130.45;;;;;;;;;;5095927;28;20031;-66
2021/12/06 04:22:16;;;;;;;287.83;137.65;;;;;;;;;;5084040;28;20320;-66
2021/12/06 04:24:44;;;;;;;298.50;148.98;;;;;;;;;;5092762;28;20027;-66
2021/12/06 04:27:14;;;;;;;330.15;150.73;;;;;;;;;;5093177;28;20035;-64
2021/12/06 04:29:43;;;;;;;300.63;140.02;;;;;;;;;;5093832;28;20031;-65
2021/12/06 04:32:11;;;;;;;283.38;127.60;;;;;;;;;;5096780;28;20024;-67
2021/12/06 04:34:38;;;;;;;284.70;123.88;;;;;;;;;;5095969;28;20435;-67
2021/12/06 04:37:06;;;;;;;274.98;122.20;;;;;;;;;;5096890;28;20052;-68
2021/12/06 04:39:34;;;;;;;244.73;113.43;;;;;;;;;;5097161;28;20036;-68
2021/12/06 04:42:02;;;;;;;237.80;102.47;;;;;;;;;;5096551;28;20324;-68
2021/12/06 04:44:30;;;;;;;221.52;97.80;;;;;;;;;;5096752;28;20198;-68
2021/12/06 04:46:59;;;;;;;216.27;94.93;;;;;;;;;;5096308;28;20023;-68
2021/12/06 04:49:28;;;;;;;212.88;94.05;;;;;;;;;;5097701;28;20034;-68
2021/12/06 04:51:58;;;;;;;216.88;96.57;;;;;;;;;;5095505;28;20367;-69
2021/12/06 04:54:29;;;;;;;226.25;99.60;;;;;;;;;;5097645;28;20028;-66
2021/12/06 04:57:17;;;;;;;233.05;97.60;;;;;;;;;;5096952;28;20040;-67
2021/12/06 04:59:50;;;;;;;239.60;100.15;;;;;;;;;;5072219;28;20028;-67
2021/12/06 05:02:22;;;;;;;239.50;103.05;;;;;;;;;;5052944;28;20039;-67
2021/12/06 05:04:52;;;;;;;241.43;106.32;;;;;;;;;;5058022;28;20045;-67
2021/12/06 05:07:25;;;;;;;228.80;103.70;;;;;;;;;;5075071;28;20055;-67
2021/12/06 05:09:53;;;;;;;243.77;110.78;;;;;;;;;;5058193;28;20360;-67
2021/12/06 05:12:23;;;;;;;247.80;112.30;;;;;;;;;;5074495;28;20091;-67
2021/12/06 05:14:51;;;;;;;272.15;111.57;;;;;;;;;;5074579;28;20043;-67
2021/12/06 05:17:19;;;;;;;257.15;106.55;;;;;;;;;;5058313;28;20444;-67
2021/12/06 05:19:46;;;;;;;266.08;103.72;;;;;;;;;;5076307;28;20059;-67
2021/12/06 05:22:14;;;;;;;247.35;109.07;;;;;;;;;;5075936;28;20036;-65
2021/12/06 05:24:42;;;;;;;251.57;113.15;;;;;;;;;;5074460;28;20068;-66
2021/12/06 05:27:10;;;;;;;241.32;104.25;;;;;;;;;;5075069;28;20056;-66
2021/12/06 05:29:38;;;;;;;228.75;98.68;;;;;;;;;;5076036;28;20414;-66
2021/12/06 05:32:06;;;;;;;240.13;98.60;;;;;;;;;;5097495;28;20028;-68
2021/12/06 05:34:38;;;;;;;227.68;100.35;;;;;;;;;;5096417;28;20028;-65
2021/12/06 05:37:11;;;;;;;226.15;95.25;;;;;;;;;;5097441;28;20709;-66
2021/12/06 05:39:39;;;;;;;235.57;97.72;;;;;;;;;;5096922;28;20103;-65
2021/12/06 05:42:12;;;;;;;224.00;95.97;;;;;;;;;;5096870;28;20028;-66
2021/12/06 05:44:40;;;;;;;222.00;95.05;;;;;;;;;;5096930;28;20030;-65
2021/12/06 05:47:07;;;;;;;213.73;91.65;;;;;;;;;;5096901;28;20056;-66
2021/12/06 05:49:35;;;;;;;247.05;98.75;;;;;;;;;;5096893;28;20020;-67
2021/12/06 05:52:03;;;;;;;253.07;96.68;;;;;;;;;;5096969;28;20028;-68
2021/12/06 05:54:31;;;;;;;228.30;98.63;;;;;;;;;;5099077;28;20401;-67
2021/12/06 05:56:58;;;;;;;222.57;94.82;;;;;;;;;;5098972;28;20072;-65
2021/12/06 05:59:44;;;;;;;228.18;96.43;;;;;;;;;;5096746;28;20111;-66
2021/12/06 06:02:12;;;;;;;228.05;96.47;;;;;;;;;;5037016;28;20091;-65
2021/12/06 06:04:40;;;;;;;252.55;101.05;;;;;;;;;;5017802;28;20042;-65
2021/12/06 06:07:08;;;;;;;231.00;94.03;;;;;;;;;;5014822;28;20399;-66
2021/12/06 06:09:36;;;;;;;228.73;94.45;;;;;;;;;;5033977;28;20068;-65
2021/12/06 06:12:04;;;;;;;216.15;93.97;;;;;;;;;;5034166;28;20113;-66
2021/12/06 06:14:33;;;;;;;203.20;90.60;;;;;;;;;;5015622;28;20021;-65
2021/12/06 06:17:13;;;;;;;210.63;87.45;;;;;;;;;;5017623;28;20037;-66
2021/12/06 06:19:43;;;;;;;220.32;93.72;;;;;;;;;;5033438;28;20021;-66
2021/12/06 06:22:10;;;;;;;238.07;97.53;;;;;;;;;;5034208;28;20108;-66
2021/12/06 06:24:38;;;;;;;227.57;96.15;;;;;;;;;;5034330;28;20041;-65
2021/12/06 06:27:06;;;;;;;235.82;105.93;;;;;;;;;;5033800;28;20041;-63
2021/12/06 06:29:35;;;;;;;262.42;118.60;;;;;;;;;;5034126;28;20037;-67
2021/12/06 06:32:04;;;;;;;299.70;123.25;;;;;;;;;;5033647;28;20021;-65
2021/12/06 06:34:32;;;;;;;280.55;125.40;;;;;;;;;;5034466;28;20021;-65
2021/12/06 06:37:00;;;;;;;302.95;127.28;;;;;;;;;;5017629;28;20037;-64
2021/12/06 06:39:27;;;;;;;283.20;125.28;;;;;;;;;;5017062;28;20033;-64
2021/12/06 06:41:55;;;;;;;284.77;122.68;;;;;;;;;;5033448;28;20029;-65
2021/12/06 06:44:23;;;;;;;285.92;125.28;;;;;;;;;;5033950;28;20108;-67
2021/12/06 06:46:51;;;;;;;280.95;121.00;;;;;;;;;;5033660;28;20091;-66
2021/12/06 06:49:19;;;;;;;273.30;122.22;;;;;;;;;;5016876;28;20029;-65
2021/12/06 06:51:46;;;;;;;288.08;124.18;;;;;;;;;;5033438;28;20047;-66
2021/12/06 06:54:15;;;;;;;282.48;125.35;;;;;;;;;;5033498;28;20075;-66
2021/12/06 06:56:41;;;;;;;283.73;122.78;;;;;;;;;;5033103;28;20021;-65
2021/12/06 06:59:09;;;;;;;287.30;125.72;;;;;;;;;;5032836;28;20037;-66
2021/12/06 07:01:37;;;;;;;263.27;117.70;;;;;;;;;;5032699;28;20032;-65
2021/12/06 07:04:05;;;;;;;273.02;120.00;;;;;;;;;;5016295;28;20036;-65
2021/12/06 07:06:32;;;;;;;273.67;120.57;;;;;;;;;;5016351;28;20029;-65
2021/12/06 07:09:00;;;;;;;277.63;120.25;;;;;;;;;;5015979;28;20446;-66
2021/12/06 07:11:28;;;;;;;279.50;118.38;;;;;;;;;;5040302;28;20033;-65
2021/12/06 07:13:56;;;;;;;272.55;115.03;;;;;;;;;;5034731;28;20373;-69
2021/12/06 07:16:24;;;;;;;252.95;108.63;;;;;;;;;;5033481;28;20034;-64
2021/12/06 07:18:52;;;;;;;253.95;107.45;;;;;;;;;;5034990;28;20441;-65
2021/12/06 07:21:20;;;;;;;239.55;106.70;;;;;;;;;;5035888;28;20030;-65
2021/12/06 07:23:51;;;;;;;247.52;102.53;;;;;;;;;;5038480;28;20021;-65
2021/12/06 07:26:20;;;;;;;239.82;102.68;;;;;;;;;;5037463;28;20026;-65
2021/12/06 07:28:50;;;;;;;237.63;103.10;;;;;;;;;;5038262;28;20029;-66
2021/12/06 07:31:19;;;;;;;212.23;97.35;;;;;;;;;;5038373;28;20018;-70
2021/12/06 07:33:48;;;;;;;225.00;100.35;;;;;;;;;;5041038;28;20414;-69
2021/12/06 07:36:16;;;;;;;218.13;95.30;;;;;;;;;;5037757;28;20032;-67
2021/12/06 07:38:50;;;;;;;208.63;89.35;;;;;;;;;;5040630;28;20132;-68
2021/12/06 07:41:23;;;;;;;192.55;84.75;;;;;;;;;;5048801;28;20102;-65
2021/12/06 07:43:51;;;;;;;201.50;85.05;;;;;;;;;;5058367;28;20017;-65
2021/12/06 07:46:46;;;;;;;190.15;76.28;;;;;;;;;;5075144;28;20028;-67
2021/12/06 07:49:15;;;;;;;204.60;80.13;;;;;;;;;;4993434;28;20068;-66
2021/12/06 07:51:43;;;;;;;177.95;75.32;;;;;;;;;;4995669;28;20061;-66
2021/12/06 07:54:12;;;;;;;174.45;74.25;;;;;;;;;;4996888;28;20035;-67
2021/12/06 07:56:39;;;;;;;170.20;69.07;;;;;;;;;;4984305;28;20030;-65
2021/12/06 07:59:07;;;;;;;171.70;68.97;;;;;;;;;;5013029;28;20046;-64
2021/12/06 08:01:34;;;;;;;161.50;67.97;;;;;;;;;;5012615;28;20087;-71
2021/12/06 08:04:01;;;;;;;167.82;68.25;;;;;;;;;;5013006;28;20053;-70
2021/12/06 08:06:29;;;;;;;177.98;67.07;;;;;;;;;;5013784;28;20034;-68
2021/12/06 08:08:57;;;;;;;164.30;66.15;;;;;;;;;;5013825;28;20307;-69
2021/12/06 08:11:25;;;;;;;167.13;66.70;;;;;;;;;;5013938;28;20413;-69
2021/12/06 08:13:54;;;;;;;155.85;64.93;;;;;;;;;;5014113;28;20034;-69
2021/12/06 08:16:27;;;;;;;168.00;65.20;;;;;;;;;;5014110;28;20022;-71
2021/12/06 08:19:15;;;;;;;152.77;62.22;;;;;;;;;;5013600;28;20042;-69
2021/12/06 08:21:43;;;;;;;159.50;62.85;;;;;;;;;;4955333;29;20078;-69
2021/12/06 08:24:10;;;;;;;155.48;61.03;;;;;;;;;;4954546;29;20067;-67
2021/12/06 08:26:41;;;;;;;157.40;62.60;;;;;;;;;;4976707;28;20030;-66
2021/12/06 08:29:11;;;;;;;152.40;62.38;;;;;;;;;;5012288;28;20137;-66
2021/12/06 08:31:41;;;;;;;166.73;68.97;;;;;;;;;;5014000;28;20018;-67
2021/12/06 08:34:09;;;;;;;173.40;67.78;;;;;;;;;;5011774;28;20030;-68
2021/12/06 08:36:36;;;;;;;171.63;67.30;;;;;;;;;;5013009;28;20029;-68
2021/12/06 08:39:05;;;;;;;159.40;64.05;;;;;;;;;;4998150;28;20105;-69
2021/12/06 08:41:33;;;;;;;178.75;65.60;;;;;;;;;;5008166;28;20018;-68
2021/12/06 08:44:01;;;;;;;154.35;63.55;;;;;;;;;;5013213;28;20037;-68
2021/12/06 08:46:34;;;;;;;158.15;63.00;;;;;;;;;;4993788;28;20026;-68
2021/12/06 08:49:05;;;;;;;160.50;64.50;;;;;;;;;;4996046;28;20030;-68
2021/12/06 08:51:36;;;;;;;160.48;68.18;;;;;;;;;;5010901;28;20038;-68
2021/12/06 08:54:05;;;;;;;168.25;62.90;;;;;;;;;;4995128;28;20026;-67
2021/12/06 08:56:32;;;;;;;165.65;63.88;;;;;;;;;;4929122;28;1851376;-66
2021/12/06 08:59:00;;;;;;;155.68;64.22;;;;;;;;;;5029425;28;20037;-68
2021/12/06 09:01:29;;;;;;;170.48;63.13;;;;;;;;;;5053645;28;20333;-65
2021/12/06 09:03:56;;;;;;;159.13;66.50;;;;;;;;;;5053345;28;20067;-69
2021/12/06 09:06:24;;;;;;;158.43;64.03;;;;;;;;;;5036886;28;20567;-70
2021/12/06 09:08:54;;;;;;;165.80;65.47;;;;;;;;;;5036876;28;20128;-69
2021/12/06 09:11:22;;;;;;;175.23;65.95;;;;;;;;;;5050557;28;20017;-68
2021/12/06 09:13:53;;;;;;;190.23;69.30;;;;;;;;;;5036562;28;20028;-69
2021/12/06 09:16:23;;;;;;;179.20;70.93;;;;;;;;;;5029070;28;20030;-70
2021/12/06 09:18:50;;;;;;;192.07;77.63;;;;;;;;;;5016568;28;20091;-68
2021/12/06 09:21:23;;;;;;;188.35;77.22;;;;;;;;;;5026286;28;20037;-67
2021/12/06 09:24:00;;;;;;;198.70;79.47;;;;;;;;;;5016990;28;20345;-68
2021/12/06 09:26:34;;;;;;;191.68;77.63;;;;;;;;;;5032535;28;20029;-70
2021/12/06 09:29:06;;;;;;;216.05;83.50;;;;;;;;;;5036575;28;20025;-68
2021/12/06 09:31:34;;;;;;;204.55;78.70;;;;;;;;;;5034333;28;20426;-70
2021/12/06 09:34:02;;;;;;;204.38;81.72;;;;;;;;;;5017903;28;20073;-74
2021/12/06 09:36:30;;;;;;;199.32;77.00;;;;;;;;;;5035937;28;20021;-70
2021/12/06 09:38:57;;;;;;;190.00;73.22;;;;;;;;;;5035873;28;20038;-71
2021/12/06 09:41:27;;;;;;;194.63;73.88;;;;;;;;;;5034401;28;20095;-68
2021/12/06 09:43:58;;;;;;;207.15;77.38;;;;;;;;;;5034344;28;20461;-69
2021/12/06 09:46:28;;;;;;;197.68;75.00;;;;;;;;;;5033429;28;20026;-69
2021/12/06 09:49:03;;;;;;;210.52;79.13;;;;;;;;;;5032367;28;20069;-69
2021/12/06 09:51:30;;;;;;;214.18;80.80;;;;;;;;;;5032034;28;20052;-69
2021/12/06 09:54:01;;;;;;;233.95;86.38;;;;;;;;;;5023386;28;20034;-71
2021/12/06 09:56:37;;;;;;;227.07;84.03;;;;;;;;;;5043761;28;20396;-71
2021/12/06 09:59:09;;;;;;;221.98;84.70;;;;;;;;;;5040451;28;20061;-71
2021/12/06 10:01:46;;;;;;;244.88;88.82;;;;;;;;;;5039214;28;20033;-70
2021/12/06 10:04:15;;;;;;;244.18;91.18;;;;;;;;;;5040977;28;20021;-70
2021/12/06 10:06:47;;;;;;;247.80;93.40;;;;;;;;;;5045136;28;20422;-69
2021/12/06 10:09:18;;;;;;;260.73;101.32;;;;;;;;;;5048981;28;20498;-69
2021/12/06 10:11:46;;;;;;;278.42;105.03;;;;;;;;;;5044306;28;20071;-69
2021/12/06 10:14:15;;;;;;;282.92;106.13;;;;;;;;;;5043655;28;20044;-69
2021/12/06 10:16:44;;;;;;;284.98;108.43;;;;;;;;;;5042029;28;20385;-67
2021/12/06 10:19:12;;;;;;;281.25;99.30;;;;;;;;;;5044385;28;20074;-68
2021/12/06 10:21:40;;;;;;;294.80;102.88;;;;;;;;;;5042425;28;20112;-68
2021/12/06 10:24:16;;;;;;;271.60;93.32;;;;;;;;;;5043343;28;20029;-68
2021/12/06 10:26:44;;;;;;;284.50;99.97;;;;;;;;;;5064863;28;20033;-67
2021/12/06 10:29:20;;;;;;;286.23;100.57;;;;;;;;;;5072582;28;20095;-68
2021/12/06 10:31:53;;;;;;;267.02;95.85;;;;;;;;;;5051749;28;20040;-69
2021/12/06 10:34:24;;;;;;;297.67;102.80;;;;;;;;;;5052401;28;20051;-68
2021/12/06 10:36:53;;;;;;;303.17;106.20;;;;;;;;;;5051948;28;20437;-70
2021/12/06 10:39:22;;;;;;;301.35;103.97;;;;;;;;;;5051057;28;20033;-67
2021/12/06 10:41:54;;;;;;;286.85;100.95;;;;;;;;;;5052195;28;20025;-69
2021/12/06 10:44:22;;;;;;;288.65;102.53;;;;;;;;;;5035706;28;20017;-69
2021/12/06 10:46:51;;;;;;;281.35;98.95;;;;;;;;;;5051943;28;20420;-68
2021/12/06 10:49:23;;;;;;;271.10;92.40;;;;;;;;;;5052778;28;20041;-68
2021/12/06 10:51:51;;;;;;;264.33;94.35;;;;;;;;;;5035942;28;20052;-66
2021/12/06 10:54:28;;;;;;;270.20;96.20;;;;;;;;;;5055984;28;20125;-70
2021/12/06 10:56:59;;;;;;;249.93;90.85;;;;;;;;;;5044809;28;20211;-68
2021/12/06 10:59:28;;;;;;;229.70;87.78;;;;;;;;;;5092966;28;20092;-68
2021/12/06 11:02:00;;;;;;;229.73;86.63;;;;;;;;;;5092870;28;20024;-68
2021/12/06 11:04:29;;;;;;;235.05;87.28;;;;;;;;;;5092689;28;20017;-71
2021/12/06 11:07:05;;;;;;;253.80;89.68;;;;;;;;;;5077339;28;20121;-70
2021/12/06 11:09:33;;;;;;;259.73;103.65;;;;;;;;;;5093940;28;20016;-70
2021/12/06 11:12:03;;;;;;;268.80;99.03;;;;;;;;;;5095728;28;20024;-71
2021/12/06 11:14:31;;;;;;;221.63;87.00;;;;;;;;;;5096335;28;20036;-70
2021/12/06 11:17:04;;;;;;;256.92;93.30;;;;;;;;;;5097427;28;20096;-70
2021/12/06 11:19:32;;;;;;;251.40;90.88;;;;;;;;;;5095736;28;20023;-70
2021/12/06 11:22:04;;;;;;;239.15;88.55;;;;;;;;;;5096111;28;20020;-70
2021/12/06 11:24:43;;;;;;;228.45;83.22;;;;;;;;;;5095407;28;20024;-69
2021/12/06 11:27:24;;;;;;;232.10;82.88;;;;;;;;;;5095788;28;20016;-68
2021/12/06 11:30:05;;;;;;;221.77;78.40;;;;;;;;;;5094490;28;20039;-70
2021/12/06 11:32:35;;;;;;;211.98;82.13;;;;;;;;;;5095443;28;20017;-70
2021/12/06 11:35:08;;;;;;;228.80;84.30;;;;;;;;;;5094612;28;20017;-71
2021/12/06 11:37:37;;;;;;;214.25;76.95;;;;;;;;;;5095236;28;20030;-70
2021/12/06 11:40:15;;;;;;;232.32;81.65;;;;;;;;;;5095442;28;20032;-70
2021/12/06 11:42:56;;;;;;;210.10;76.50;;;;;;;;;;5095566;28;20047;-70
2021/12/06 11:45:52;;;;;;;209.95;75.88;;;;;;;;;;5074190;28;20437;-70
2021/12/06 11:48:35;;;;;;;216.20;76.15;;;;;;;;;;5073457;28;20028;-70
2021/12/06 11:51:08;;;;;;;204.20;76.03;;;;;;;;;;5073705;28;20090;-70
2021/12/06 11:53:55;;;;;;;215.73;77.97;;;;;;;;;;5073669;28;20158;-70
2021/12/06 11:56:25;;;;;;;227.23;80.63;;;;;;;;;;5073623;28;20033;-70
2021/12/06 11:58:56;;;;;;;209.30;75.88;;;;;;;;;;5073307;28;20075;-70
2021/12/06 12:01:28;;;;;;;196.32;71.82;;;;;;;;;;5073077;28;20029;-70
2021/12/06 12:03:59;;;;;;;201.80;70.88;;;;;;;;;;5073321;28;20035;-70
2021/12/06 12:06:39;;;;;;;206.05;67.50;;;;;;;;;;5073358;28;20044;-71
2021/12/06 12:09:08;;;;;;;182.93;67.07;;;;;;;;;;5075144;28;20025;-70
2021/12/06 12:11:56;;;;;;;186.63;67.28;;;;;;;;;;5059756;28;20444;-70
2021/12/06 12:14:41;;;;;;;199.90;71.45;;;;;;;;;;5059707;28;20032;-70
2021/12/06 12:17:15;;;;;;;202.18;70.82;;;;;;;;;;5094950;28;20111;-70
2021/12/06 12:19:43;;;;;;;191.32;69.25;;;;;;;;;;5098763;28;20024;-70
2021/12/06 12:22:12;;;;;;;180.93;67.28;;;;;;;;;;5099018;28;20024;-71
2021/12/06 12:24:43;;;;;;;199.70;70.63;;;;;;;;;;5097888;28;20372;-69
2021/12/06 12:27:25;;;;;;;181.45;65.72;;;;;;;;;;5099378;28;20020;-70
2021/12/06 12:29:55;;;;;;;195.82;69.68;;;;;;;;;;5099893;28;20063;-69
2021/12/06 12:32:23;;;;;;;193.27;70.15;;;;;;;;;;5080698;28;20028;-70
2021/12/06 12:34:52;;;;;;;198.60;72.78;;;;;;;;;;5098657;28;20020;-70
2021/12/06 12:37:20;;;;;;;190.93;67.75;;;;;;;;;;5097599;28;20039;-70
2021/12/06 12:40:05;;;;;;;202.23;68.00;;;;;;;;;;5098786;28;20028;-70
2021/12/06 12:42:33;;;;;;;184.55;67.28;;;;;;;;;;5097332;28;20028;-69
2021/12/06 12:45:03;;;;;;;172.50;62.28;;;;;;;;;;5097275;28;20020;-69
2021/12/06 12:47:32;;;;;;;185.13;64.18;;;;;;;;;;5097929;28;20094;-70
2021/12/06 12:50:01;;;;;;;164.10;61.90;;;;;;;;;;5096720;28;20031;-70
2021/12/06 12:52:48;;;;;;;185.43;63.08;;;;;;;;;;5098440;28;20442;-70
2021/12/06 12:55:28;;;;;;;169.70;63.55;;;;;;;;;;5098013;28;20510;-70
2021/12/06 12:58:15;;;;;;;171.43;65.22;;;;;;;;;;5097626;28;20466;-70
2021/12/06 13:00:56;;;;;;;203.90;67.28;;;;;;;;;;5098171;28;20032;-69
2021/12/06 13:03:40;;;;;;;176.55;64.15;;;;;;;;;;5096767;28;20028;-69
2021/12/06 13:06:22;;;;;;;205.02;74.35;;;;;;;;;;5097976;28;20020;-69
2021/12/06 13:08:51;;;;;;;199.70;77.93;;;;;;;;;;5097905;28;20026;-70
2021/12/06 13:11:19;;;;;;;205.60;82.53;;;;;;;;;;5098206;28;20024;-69
2021/12/06 13:13:49;;;;;;;239.60;103.22;;;;;;;;;;5097725;28;20020;-71
2021/12/06 13:16:31;;;;;;;242.65;107.18;;;;;;;;;;5096144;28;20061;-70
2021/12/06 13:19:16;;;;;;;251.30;109.38;;;;;;;;;;5097369;28;20020;-70
2021/12/06 13:21:53;;;;;;;262.88;109.35;;;;;;;;;;5096990;28;20048;-70
2021/12/06 13:24:22;;;;;;;224.40;95.38;;;;;;;;;;5075226;28;20037;-70
2021/12/06 13:26:51;;;;;;;229.60;95.45;;;;;;;;;;5076291;28;20071;-70
2021/12/06 13:29:27;;;;;;;208.75;89.55;;;;;;;;;;5074951;28;20040;-71
2021/12/06 13:31:55;;;;;;;227.15;90.35;;;;;;;;;;5058109;28;20020;-70
2021/12/06 13:34:29;;;;;;;206.82;87.13;;;;;;;;;;5058665;28;20032;-71
2021/12/06 13:36:58;;;;;;;209.35;86.38;;;;;;;;;;5075331;28;20036;-70
2021/12/06 13:39:35;;;;;;;214.77;86.97;;;;;;;;;;5075271;28;20040;-70
2021/12/06 13:42:13;;;;;;;213.88;82.13;;;;;;;;;;5058321;28;20460;-71
2021/12/06 13:44:46;;;;;;;210.30;83.50;;;;;;;;;;5058251;28;20032;-70
2021/12/06 13:47:18;;;;;;;211.60;84.43;;;;;;;;;;5074902;28;20457;-71
2021/12/06 13:49:54;;;;;;;217.93;90.20;;;;;;;;;;5075362;28;20091;-71
2021/12/06 13:52:34;;;;;;;245.23;92.07;;;;;;;;;;5058189;28;20105;-72
2021/12/06 13:55:03;;;;;;;250.00;100.35;;;;;;;;;;5071220;28;20036;-72
2021/12/06 13:57:30;;;;;;;238.15;98.43;;;;;;;;;;5097389;28;20048;-70
2021/12/06 14:00:01;;;;;;;235.93;96.85;;;;;;;;;;5097676;28;20103;-72
2021/12/06 14:02:30;;;;;;;254.35;99.40;;;;;;;;;;5097803;28;20020;-71
2021/12/06 14:04:58;;;;;;;239.82;99.65;;;;;;;;;;5096743;28;20028;-71
2021/12/06 14:07:27;;;;;;;237.35;98.32;;;;;;;;;;5095487;28;20088;-72
2021/12/06 14:09:57;;;;;;;237.82;101.95;;;;;;;;;;5094914;28;20024;-70
2021/12/06 14:12:28;;;;;;;268.45;111.38;;;;;;;;;;5096290;28;20106;-71
2021/12/06 14:15:13;;;;;;;271.75;112.93;;;;;;;;;;5095692;28;20031;-72
2021/12/06 14:17:41;;;;;;;267.65;112.85;;;;;;;;;;5096429;28;20028;-71
2021/12/06 14:20:10;;;;;;;285.10;116.97;;;;;;;;;;5095169;28;20412;-71
2021/12/06 14:22:39;;;;;;;288.70;118.35;;;;;;;;;;5096880;28;20073;-70
2021/12/06 14:25:07;;;;;;;277.98;110.45;;;;;;;;;;5096778;28;20093;-70
2021/12/06 14:27:36;;;;;;;247.20;99.43;;;;;;;;;;5097388;28;20073;-69
2021/12/06 14:30:09;;;;;;;263.05;104.10;;;;;;;;;;5104318;28;20020;-67
2021/12/06 14:32:37;;;;;;;258.90;105.18;;;;;;;;;;5095501;28;20020;-71
2021/12/06 14:35:05;;;;;;;250.80;105.40;;;;;;;;;;5096675;28;20103;-70
2021/12/06 14:37:32;;;;;;;254.10;107.47;;;;;;;;;;5097413;28;20047;-70